Time;durP1;ratioP1;P1;durP2;ratioP2;P2;SDS_P1;SDS_P2;PMS_P1;PMS_P2;Temp;Humidity;BMP_temperature;BMP_pressure;BME280_temperature;BME280_humidity;BME280_pressure;Samples;Min_cycle;Max_cycle;Signal;HPM_P1;HPM_P2
2021/10/31 00:00:56;;;;;;;30.60;20.15;;;;;;;7.82;100.00;96304.22;4998156;28;20103;-61
2021/10/31 00:03:21;;;;;;;28.65;17.95;;;;;;;7.73;100.00;96303.66;4994798;28;20138;-60
2021/10/31 00:05:47;;;;;;;27.30;17.85;;;;;;;7.62;100.00;96317.06;4998481;28;20085;-61
2021/10/31 00:08:13;;;;;;;24.98;16.10;;;;;;;7.65;100.00;96308.94;4995109;28;20046;-59
2021/10/31 00:10:38;;;;;;;29.90;17.15;;;;;;;7.71;100.00;96309.44;4997445;28;20050;-60
2021/10/31 00:13:05;;;;;;;27.50;17.85;;;;;;;7.72;100.00;96310.22;4995343;28;20165;-61
2021/10/31 00:15:30;;;;;;;27.00;16.85;;;;;;;7.72;100.00;96313.75;5003288;28;20042;-59
2021/10/31 00:17:56;;;;;;;31.17;18.40;;;;;;;7.72;100.00;96324.66;4994627;28;20045;-59
2021/10/31 00:20:22;;;;;;;26.48;18.23;;;;;;;7.73;100.00;96314.56;4994484;28;20092;-59
2021/10/31 00:22:47;;;;;;;27.50;18.10;;;;;;;7.69;100.00;96314.47;4994065;28;20048;-56
2021/10/31 00:25:14;;;;;;;30.50;18.17;;;;;;;7.63;100.00;96300.34;4986206;28;20069;-57
2021/10/31 00:27:41;;;;;;;36.50;20.33;;;;;;;7.63;100.00;96307.72;5002967;28;20052;-59
2021/10/31 00:30:08;;;;;;;33.67;19.27;;;;;;;7.77;100.00;96318.13;4993739;28;20050;-58
2021/10/31 00:32:33;;;;;;;32.70;20.35;;;;;;;7.97;100.00;96314.25;4983403;28;20086;-61
2021/10/31 00:34:59;;;;;;;31.73;20.02;;;;;;;7.65;100.00;96302.69;4992562;28;20534;-59
2021/10/31 00:37:25;;;;;;;36.35;19.48;;;;;;;7.39;100.00;96314.22;4998182;28;20056;-59
2021/10/31 00:39:50;;;;;;;36.67;21.48;;;;;;;7.57;100.00;96320.06;5002989;28;20091;-61
2021/10/31 00:42:16;;;;;;;34.40;21.27;;;;;;;7.71;100.00;96336.72;4996869;28;20030;-61
2021/10/31 00:44:42;;;;;;;32.13;20.08;;;;;;;7.69;100.00;96341.72;5002971;28;20034;-58
2021/10/31 00:47:08;;;;;;;32.20;19.85;;;;;;;7.66;100.00;96343.22;5008362;28;20046;-63
2021/10/31 00:49:33;;;;;;;34.85;19.48;;;;;;;7.60;100.00;96325.59;5004021;28;20047;-59
2021/10/31 00:52:00;;;;;;;33.00;19.38;;;;;;;7.60;100.00;96328.31;4984369;28;20050;-60
2021/10/31 00:54:25;;;;;;;32.22;19.58;;;;;;;7.59;100.00;96329.44;4988386;28;20042;-61
2021/10/31 00:56:51;;;;;;;33.40;19.58;;;;;;;7.59;100.00;96334.88;5005616;28;20052;-58
2021/10/31 00:59:17;;;;;;;40.63;21.45;;;;;;;7.35;100.00;96321.50;5016955;28;20077;-59
2021/10/31 01:01:44;;;;;;;31.98;19.85;;;;;;;7.32;100.00;96333.13;5009582;28;20033;-57
2021/10/31 01:04:10;;;;;;;37.38;20.83;;;;;;;7.42;100.00;96332.56;4997293;28;20045;-59
2021/10/31 01:06:50;;;;;;;35.40;21.17;;;;;;;7.37;100.00;96319.22;4988278;28;20042;-58
2021/10/31 01:09:25;;;;;;;;;;;;;;;7.28;100.00;96309.28;4976289;28;20046;-58
2021/10/31 01:12:17;;;;;;;36.28;20.50;;;;;;;7.10;100.00;96308.09;4992345;28;19957;-58
2021/10/31 01:15:00;;;;;;;42.35;23.02;;;;;;;6.93;100.00;96306.53;4954932;28;20073;-57
2021/10/31 01:17:50;;;;;;;41.97;23.35;;;;;;;6.95;100.00;96306.97;4995998;28;20093;-58
2021/10/31 01:20:39;;;;;;;43.97;24.63;;;;;;;7.07;100.00;96297.91;4997313;28;20438;-58
2021/10/31 01:23:17;;;;;;;41.95;25.08;;;;;;;7.12;100.00;96303.09;4989848;28;20069;-60
2021/10/31 01:26:00;;;;;;;42.05;24.98;;;;;;;7.28;100.00;96309.28;5008545;28;20048;-62
2021/10/31 01:29:05;;;;;;;44.67;24.27;;;;;;;7.28;100.00;96308.50;5001625;28;20332;-60
2021/10/31 01:31:54;;;;;;;33.90;21.10;;;;;;;7.30;100.00;96308.16;5014495;28;20045;-58
2021/10/31 01:34:34;;;;;;;36.53;21.88;;;;;;;7.32;100.00;96295.75;4979601;28;20066;-56
2021/10/31 01:37:16;;;;;;;38.20;22.08;;;;;;;7.24;100.00;96308.44;5003411;28;20053;-59
2021/10/31 01:39:50;;;;;;;36.50;21.48;;;;;;;7.20;100.00;96298.59;4998701;28;20052;-57
2021/10/31 01:42:18;;;;;;;37.53;21.85;;;;;;;7.25;100.00;96317.38;4997622;28;20045;-59
2021/10/31 01:44:54;;;;;;;33.42;21.35;;;;;;;7.24;100.00;96319.31;5002369;28;20073;-59
2021/10/31 01:47:35;;;;;;;33.38;21.10;;;;;;;7.23;100.00;96314.22;4996786;28;20450;-59
2021/10/31 01:50:11;;;;;;;36.88;22.42;;;;;;;7.14;100.00;96297.28;5001822;28;20506;-59
2021/10/31 01:52:46;;;;;;;33.88;21.65;;;;;;;7.14;100.00;96305.47;5001073;28;20042;-59
2021/10/31 01:55:19;;;;;;;34.35;21.63;;;;;;;7.18;100.00;96311.78;4996946;28;20568;-60
2021/10/31 01:57:48;;;;;;;33.03;20.17;;;;;;;7.26;100.00;96306.13;5001272;28;20034;-60
2021/10/31 02:00:16;;;;;;;31.70;19.88;;;;;;;7.23;100.00;96308.78;4991841;28;20088;-61
2021/10/31 02:02:45;;;;;;;31.70;20.42;;;;;;;7.16;100.00;96301.22;4996357;28;20095;-60
2021/10/31 02:05:14;;;;;;;32.83;21.03;;;;;;;7.11;100.00;96296.03;4995654;28;20037;-55
2021/10/31 02:07:45;;;;;;;35.17;20.92;;;;;;;7.06;100.00;96293.63;5000436;28;20049;-59
2021/10/31 02:10:13;;;;;;;34.10;21.25;;;;;;;6.98;100.00;96294.59;4994960;28;20053;-60
2021/10/31 02:12:41;;;;;;;38.15;21.63;;;;;;;7.04;100.00;96293.97;4999922;28;20530;-60
2021/10/31 02:15:11;;;;;;;32.33;19.85;;;;;;;7.10;100.00;96285.53;4991485;28;20065;-61
2021/10/31 02:17:37;;;;;;;31.30;20.25;;;;;;;7.18;100.00;96287.25;5001913;28;20045;-60
2021/10/31 02:20:04;;;;;;;34.70;19.33;;;;;;;7.09;100.00;96290.16;4997673;28;20053;-61
2021/10/31 02:22:31;;;;;;;38.08;21.05;;;;;;;6.80;100.00;96294.16;5000039;28;20053;-58
2021/10/31 02:25:00;;;;;;;49.63;21.70;;;;;;;6.62;100.00;96289.06;4981774;28;20046;-59
2021/10/31 02:27:29;;;;;;;41.65;25.05;;;;;;;6.51;100.00;96286.06;4989876;28;20050;-60
2021/10/31 02:29:56;;;;;;;;;;;;;;;6.49;100.00;96282.13;4998873;28;20063;-60
2021/10/31 02:32:25;;;;;;;37.28;21.20;;;;;;;6.57;100.00;96281.19;4990863;28;20362;-59
2021/10/31 02:34:51;;;;;;;32.97;19.35;;;;;;;6.61;100.00;96301.09;5001097;28;20653;-59
2021/10/31 02:37:16;;;;;;;36.00;20.55;;;;;;;6.57;100.00;96291.25;4995131;28;20061;-59
2021/10/31 02:39:42;;;;;;;33.63;20.95;;;;;;;6.58;100.00;96282.75;5001111;28;20402;-57
2021/10/31 02:42:08;;;;;;;33.78;21.15;;;;;;;6.55;100.00;96291.59;4994466;28;20049;-58
2021/10/31 02:44:34;;;;;;;45.50;23.67;;;;;;;6.44;100.00;96277.72;4996540;28;20050;-59
2021/10/31 02:47:00;;;;;;;38.60;22.85;;;;;;;6.39;100.00;96280.72;4994213;28;20372;-59
2021/10/31 02:49:28;;;;;;;39.95;23.13;;;;;;;6.44;100.00;96271.50;4989990;28;20054;-56
2021/10/31 02:52:09;;;;;;;33.13;20.90;;;;;;;6.50;100.00;96265.44;4998425;28;20044;-59
2021/10/31 02:54:44;;;;;;;40.28;24.02;;;;;;;6.23;100.00;96261.66;4996531;28;20054;-60
2021/10/31 02:57:17;;;;;;;41.88;22.92;;;;;;;6.08;100.00;96256.97;4992370;28;20133;-60
2021/10/31 02:59:42;;;;;;;40.58;23.30;;;;;;;6.11;100.00;96269.88;4997032;28;20042;-60
2021/10/31 03:02:10;;;;;;;33.50;21.02;;;;;;;6.24;100.00;96273.31;4991075;28;20130;-59
2021/10/31 03:04:37;;;;;;;33.83;20.92;;;;;;;6.19;100.00;96268.13;4999181;28;20042;-59
2021/10/31 03:07:04;;;;;;;34.55;21.60;;;;;;;6.13;100.00;96265.66;4987266;28;20125;-59
2021/10/31 03:09:29;;;;;;;40.38;21.40;;;;;;;6.12;100.00;96266.81;4996773;28;20471;-59
2021/10/31 03:12:03;;;;;;;33.78;19.67;;;;;;;6.17;100.00;96265.75;4997500;28;20115;-59
2021/10/31 03:14:29;;;;;;;31.38;18.83;;;;;;;6.06;100.00;96265.47;4993898;28;20048;-59
2021/10/31 03:16:55;;;;;;;37.42;21.15;;;;;;;6.01;100.00;96254.84;4997337;28;20042;-59
2021/10/31 03:19:21;;;;;;;67.00;25.00;;;;;;;5.89;100.00;96254.91;4991448;28;20036;-60
2021/10/31 03:21:46;;;;;;;39.33;24.02;;;;;;;5.82;100.00;96254.69;4994615;28;20038;-59
2021/10/31 03:24:12;;;;;;;36.97;21.92;;;;;;;5.86;100.00;96256.38;4994567;28;20129;-58
2021/10/31 03:26:37;;;;;;;35.08;21.48;;;;;;;5.94;100.00;96255.44;5000407;28;20502;-57
2021/10/31 03:29:03;;;;;;;35.13;21.30;;;;;;;6.01;100.00;96245.91;4995107;28;20375;-60
2021/10/31 03:31:29;;;;;;;34.25;20.08;;;;;;;6.09;100.00;96242.25;4991137;28;20050;-58
2021/10/31 03:33:54;;;;;;;29.35;18.95;;;;;;;6.12;100.00;96241.53;5001546;28;20818;-60
2021/10/31 03:36:20;;;;;;;27.65;18.00;;;;;;;6.11;100.00;96238.03;5008280;28;20109;-61
2021/10/31 03:38:46;;;;;;;26.25;19.63;;;;;;;6.08;100.00;96236.00;5010110;28;20516;-59
2021/10/31 03:41:11;;;;;;;32.55;19.55;;;;;;;5.72;100.00;96221.44;4994881;28;20042;-59
2021/10/31 03:43:37;;;;;;;30.70;19.85;;;;;;;5.45;100.00;96227.66;4998697;28;20546;-60
2021/10/31 03:46:02;;;;;;;30.08;19.48;;;;;;;5.41;100.00;96222.13;4996999;28;20049;-61
2021/10/31 03:48:28;;;;;;;30.80;19.52;;;;;;;5.65;100.00;96212.28;4998445;28;20046;-60
2021/10/31 03:50:54;;;;;;;32.13;19.70;;;;;;;5.76;100.00;96207.94;4998862;28;20042;-59
2021/10/31 03:53:20;;;;;;;32.00;19.15;;;;;;;5.89;100.00;96219.56;4993658;28;20054;-60
2021/10/31 03:55:45;;;;;;;35.25;20.27;;;;;;;5.89;100.00;96227.72;4989700;28;20053;-61
2021/10/31 03:58:11;;;;;;;30.02;20.63;;;;;;;5.98;100.00;96222.13;4994778;28;20057;-60
2021/10/31 04:00:37;;;;;;;29.77;19.33;;;;;;;6.00;100.00;96223.38;5002847;28;20456;-59
2021/10/31 04:03:03;;;;;;;32.97;20.00;;;;;;;5.98;100.00;96216.69;4990252;28;20037;-61
2021/10/31 04:05:29;;;;;;;28.25;18.20;;;;;;;5.94;100.00;96211.94;4993679;28;20101;-60
2021/10/31 04:07:54;;;;;;;34.30;20.38;;;;;;;5.94;100.00;96208.41;4997073;28;20042;-59
2021/10/31 04:10:20;;;;;;;29.70;18.52;;;;;;;5.97;100.00;96210.47;4989504;28;20639;-61
2021/10/31 04:12:50;;;;;;;32.28;18.55;;;;;;;6.06;100.00;96219.25;5003320;28;20049;-60
2021/10/31 04:15:18;;;;;;;29.92;18.95;;;;;;;6.02;100.00;96229.25;4994341;28;20109;-61
2021/10/31 04:17:44;;;;;;;31.60;18.83;;;;;;;5.89;100.00;96223.06;4998873;28;20046;-59
2021/10/31 04:20:10;;;;;;;29.35;19.05;;;;;;;5.97;100.00;96223.28;4996360;28;20410;-60
2021/10/31 04:22:36;;;;;;;28.42;17.48;;;;;;;6.02;100.00;96223.81;4994239;28;20650;-57
2021/10/31 04:25:05;;;;;;;26.70;18.55;;;;;;;6.10;100.00;96227.50;5001052;28;20046;-60
2021/10/31 04:27:31;;;;;;;24.40;16.10;;;;;;;6.13;100.00;96233.03;5002775;28;20052;-59
2021/10/31 04:29:56;;;;;;;26.08;16.95;;;;;;;6.16;100.00;96220.69;5000510;28;20413;-60
2021/10/31 04:32:22;;;;;;;23.85;16.02;;;;;;;6.14;100.00;96214.81;4993640;28;20057;-60
2021/10/31 04:34:48;;;;;;;20.42;14.73;;;;;;;6.10;100.00;96209.28;4999926;28;20077;-58
2021/10/31 04:37:14;;;;;;;26.85;16.92;;;;;;;5.53;100.00;96202.28;4995832;28;20038;-58
2021/10/31 04:39:41;;;;;;;27.48;17.23;;;;;;;5.46;100.00;96192.00;5016199;28;20060;-59
2021/10/31 04:42:08;;;;;;;90.72;18.90;;;;;;;5.23;100.00;96194.44;5023239;23;20557;-60
2021/10/31 04:44:34;;;;;;;25.88;16.65;;;;;;;5.25;100.00;96185.97;4980104;28;20449;-62
2021/10/31 04:47:00;;;;;;;28.35;17.67;;;;;;;5.27;100.00;96183.69;4973857;28;20702;-62
2021/10/31 04:49:26;;;;;;;27.23;18.08;;;;;;;5.39;100.00;96183.66;4973167;28;20050;-61
2021/10/31 04:51:51;;;;;;;30.40;17.17;;;;;;;5.38;100.00;96184.00;4970714;28;20050;-61
2021/10/31 04:54:17;;;;;;;26.17;16.42;;;;;;;5.36;100.00;96181.63;4971894;28;20545;-61
2021/10/31 04:56:42;;;;;;;28.95;17.27;;;;;;;5.42;100.00;96174.03;4968808;28;20050;-62
2021/10/31 04:59:08;;;;;;;23.83;15.90;;;;;;;5.48;100.00;96169.94;4969586;28;20062;-61
2021/10/31 05:01:34;;;;;;;27.67;17.00;;;;;;;5.46;100.00;96174.94;4957245;28;20039;-62
2021/10/31 05:03:59;;;;;;;26.15;16.48;;;;;;;5.38;100.00;96176.63;4993422;28;20038;-62
2021/10/31 05:06:25;;;;;;;23.10;15.13;;;;;;;5.25;100.00;96175.88;4966925;28;20046;-62
2021/10/31 05:08:51;;;;;;;25.30;15.05;;;;;;;5.17;100.00;96169.47;4987518;28;20046;-60
2021/10/31 05:11:16;;;;;;;22.52;15.50;;;;;;;5.12;100.00;96163.50;4965428;28;20076;-62
2021/10/31 05:13:42;;;;;;;25.05;15.88;;;;;;;4.96;100.00;96172.34;4976973;28;20085;-62
2021/10/31 05:16:08;;;;;;;27.85;16.10;;;;;;;4.86;100.00;96161.19;4980327;28;20074;-62
2021/10/31 05:18:35;;;;;;;25.02;15.82;;;;;;;4.78;100.00;96155.53;4984680;28;20129;-59
2021/10/31 05:21:01;;;;;;;24.67;15.45;;;;;;;4.95;100.00;96153.69;4973953;28;20060;-61
2021/10/31 05:23:27;;;;;;;104.20;16.23;;;;;;;4.82;100.00;96158.34;4977284;28;20101;-60
2021/10/31 05:25:53;;;;;;;22.88;13.73;;;;;;;4.86;100.00;96162.00;4979025;28;20125;-61
2021/10/31 05:28:19;;;;;;;19.08;13.25;;;;;;;4.82;100.00;96150.22;4949810;28;20050;-61
2021/10/31 05:30:45;;;;;;;19.27;13.13;;;;;;;4.78;100.00;96152.81;4972514;28;20046;-62
2021/10/31 05:33:10;;;;;;;21.63;13.68;;;;;;;4.91;100.00;96144.66;4946262;28;20047;-61
2021/10/31 05:35:36;;;;;;;18.75;13.65;;;;;;;4.97;100.00;96151.44;4959122;28;20707;-62
2021/10/31 05:38:02;;;;;;;16.58;11.90;;;;;;;5.02;100.00;96136.84;4974190;28;20042;-61
2021/10/31 05:40:29;;;;;;;17.00;11.77;;;;;;;5.05;100.00;96138.88;4970728;28;20039;-61
2021/10/31 05:42:55;;;;;;;16.15;11.40;;;;;;;4.98;100.00;96139.44;4963935;28;20117;-62
2021/10/31 05:45:21;;;;;;;15.38;10.80;;;;;;;4.91;100.00;96129.16;4963053;28;20039;-61
2021/10/31 05:47:50;;;;;;;16.08;11.43;;;;;;;4.87;100.00;96130.22;4974625;28;20105;-61
2021/10/31 05:50:16;;;;;;;20.77;10.87;;;;;;;4.79;100.00;96123.78;4977527;28;20506;-61
2021/10/31 05:52:43;;;;;;;17.98;10.90;;;;;;;4.70;100.00;96117.69;4980125;28;20300;-61
2021/10/31 05:55:11;;;;;;;14.45;10.70;;;;;;;4.59;100.00;96112.75;4967036;28;20040;-62
2021/10/31 05:57:37;;;;;;;13.27;10.23;;;;;;;4.55;100.00;96125.41;4982892;28;20137;-61
2021/10/31 06:00:06;;;;;;;15.95;11.82;;;;;;;4.41;100.00;96124.97;4971066;28;20042;-62
2021/10/31 06:02:32;;;;;;;17.73;12.30;;;;;;;4.31;100.00;96120.81;4968983;28;20057;-61
2021/10/31 06:04:58;;;;;;;16.45;11.70;;;;;;;4.39;100.00;96117.19;4977884;28;20046;-62
2021/10/31 06:07:24;;;;;;;21.67;16.13;;;;;;;4.47;100.00;96098.44;4972199;28;20507;-62
2021/10/31 06:09:50;;;;;;;27.55;16.13;;;;;;;4.45;100.00;96109.63;4981892;28;20050;-62
2021/10/31 06:12:16;;;;;;;23.02;15.82;;;;;;;4.34;100.00;96113.91;4975627;28;20446;-61
2021/10/31 06:14:41;;;;;;;19.02;14.27;;;;;;;4.37;100.00;96124.06;4982277;28;20046;-62
2021/10/31 06:17:07;;;;;;;15.20;11.18;;;;;;;4.49;100.00;96132.19;4975968;28;20058;-61
2021/10/31 06:19:34;;;;;;;16.38;11.85;;;;;;;4.53;100.00;96129.59;4977860;28;20038;-62
2021/10/31 06:21:59;;;;;;;15.20;11.35;;;;;;;4.59;100.00;96120.06;4982523;28;20038;-61
2021/10/31 06:24:25;;;;;;;14.13;10.57;;;;;;;4.66;100.00;96119.50;4967363;28;20047;-61
2021/10/31 06:26:50;;;;;;;15.80;10.68;;;;;;;4.66;100.00;96111.38;4979748;28;20621;-62
2021/10/31 06:29:16;;;;;;;33.85;18.70;;;;;;;4.69;100.00;96111.47;4969107;28;20134;-60
2021/10/31 06:31:41;;;;;;;21.73;12.85;;;;;;;4.88;100.00;96102.75;4979882;28;20397;-61
2021/10/31 06:34:07;;;;;;;13.05;10.20;;;;;;;4.90;100.00;96116.75;4959441;28;20042;-63
2021/10/31 06:36:33;;;;;;;14.00;10.15;;;;;;;5.03;100.00;96120.22;4975667;28;20051;-62
2021/10/31 06:38:58;;;;;;;13.02;10.07;;;;;;;5.24;100.00;96117.31;4977822;28;20494;-61
2021/10/31 06:41:24;;;;;;;14.98;10.50;;;;;;;5.39;100.00;96128.56;4970273;28;20197;-62
2021/10/31 06:43:50;;;;;;;12.63;9.43;;;;;;;5.40;100.00;96122.75;4974788;28;20046;-62
2021/10/31 06:46:16;;;;;;;24.08;16.52;;;;;;;5.38;100.00;96118.81;4970310;28;20065;-63
2021/10/31 06:48:41;;;;;;;16.20;11.93;;;;;;;5.27;100.00;96113.09;4980451;28;20136;-63
2021/10/31 06:51:07;;;;;;;13.82;10.38;;;;;;;5.71;100.00;96115.81;4977288;28;20503;-62
2021/10/31 06:53:33;;;;;;;14.05;10.73;;;;;;;6.64;100.00;96118.03;4969155;28;20054;-62
2021/10/31 06:56:00;;;;;;;13.27;9.98;;;;;;;7.62;100.00;96118.09;4970436;28;20418;-63
2021/10/31 06:58:25;;;;;;;11.27;8.63;;;;;;;8.47;100.00;96111.72;4975917;28;20042;-62
2021/10/31 07:00:51;;;;;;;11.82;8.02;;;;;;;9.21;100.00;96099.44;4978213;28;20058;-62
2021/10/31 07:03:17;;;;;;;8.63;6.53;;;;;;;10.31;97.76;96107.97;4971372;28;20061;-62
2021/10/31 07:05:42;;;;;;;12.90;7.95;;;;;;;11.13;88.24;96089.69;4979873;28;20395;-62
2021/10/31 07:08:08;;;;;;;16.60;9.77;;;;;;;11.28;88.55;96092.09;4967737;28;20082;-62
2021/10/31 07:10:33;;;;;;;11.43;8.55;;;;;;;11.99;83.50;96090.75;4957065;28;20509;-65
2021/10/31 07:12:59;;;;;;;8.45;6.60;;;;;;;12.23;83.53;96089.19;4971327;28;20100;-63
2021/10/31 07:15:24;;;;;;;9.30;6.75;;;;;;;12.69;80.78;96090.31;4969648;28;20041;-63
2021/10/31 07:17:52;;;;;;;8.52;6.57;;;;;;;11.19;89.18;96097.16;5002330;28;20038;-63
2021/10/31 07:20:18;;;;;;;8.35;5.97;;;;;;;12.03;83.94;96097.03;4971377;28;20053;-62
2021/10/31 07:22:43;;;;;;;9.50;6.35;;;;;;;12.44;82.90;96095.84;4981022;28;20034;-63
2021/10/31 07:25:11;;;;;;;8.95;6.00;;;;;;;13.01;80.86;96093.00;4973554;28;20141;-63
2021/10/31 07:27:36;;;;;;;11.55;6.70;;;;;;;13.18;80.68;96090.56;4977785;28;20050;-63
2021/10/31 07:30:03;;;;;;;10.48;6.10;;;;;;;13.17;79.20;96084.31;4980160;28;20046;-61
2021/10/31 07:32:30;;;;;;;9.73;5.90;;;;;;;13.57;77.36;96081.41;4971640;28;20070;-63
2021/10/31 07:34:55;;;;;;;15.30;11.50;;;;;;;11.91;89.64;96091.13;4980883;28;20462;-62
2021/10/31 07:37:21;;;;;;;14.05;9.45;;;;;;;12.89;83.99;96092.63;4974191;28;20113;-62
2021/10/31 07:39:49;;;;;;;9.55;7.13;;;;;;;13.65;80.69;96095.91;4981366;28;20046;-62
2021/10/31 07:42:14;;;;;;;11.00;7.25;;;;;;;13.82;85.08;96094.25;4974860;28;20053;-62
2021/10/31 07:44:40;;;;;;;9.50;6.10;;;;;;;14.33;79.13;96087.19;4984478;28;20038;-62
2021/10/31 07:47:05;;;;;;;11.27;7.00;;;;;;;13.41;83.24;96081.09;4979162;28;20049;-61
2021/10/31 07:49:31;;;;;;;10.23;7.10;;;;;;;14.22;77.68;96079.00;4983435;28;20680;-62
2021/10/31 07:51:56;;;;;;;9.63;7.03;;;;;;;14.63;76.60;96085.78;4981256;28;20042;-67
2021/10/31 07:54:25;;;;;;;10.20;7.15;;;;;;;15.46;71.65;96077.38;4982150;28;20213;-64
2021/10/31 07:56:54;;;;;;;9.27;6.53;;;;;;;16.09;69.50;96076.16;4988065;28;20106;-63
2021/10/31 07:59:20;;;;;;;13.10;7.60;;;;;;;16.20;71.01;96069.22;4975123;28;20042;-63
2021/10/31 08:01:45;;;;;;;14.13;8.23;;;;;;;16.04;69.12;96072.66;4984488;28;20057;-63
2021/10/31 08:04:12;;;;;;;11.57;7.82;;;;;;;15.95;71.56;96075.13;4970558;28;20031;-62
2021/10/31 08:06:38;;;;;;;10.70;7.20;;;;;;;16.55;69.00;96077.38;4984932;28;20045;-62
2021/10/31 08:09:04;;;;;;;9.95;6.75;;;;;;;16.53;68.97;96077.81;4979494;28;20047;-63
2021/10/31 08:11:29;;;;;;;7.32;5.28;;;;;;;17.80;63.77;96078.94;4974665;28;20046;-62
2021/10/31 08:13:55;;;;;;;8.98;5.63;;;;;;;18.02;62.55;96068.94;4966851;28;20050;-62
2021/10/31 08:16:22;;;;;;;7.78;5.22;;;;;;;18.47;60.51;96071.03;4971788;28;20129;-63
2021/10/31 08:18:48;;;;;;;9.30;5.65;;;;;;;18.54;59.38;96068.09;4980845;28;20038;-62
2021/10/31 08:21:14;;;;;;;7.68;5.20;;;;;;;18.82;59.47;96060.28;4978240;28;20038;-63
2021/10/31 08:23:40;;;;;;;8.25;5.43;;;;;;;18.20;59.54;96056.66;4979632;28;20077;-63
2021/10/31 08:26:06;;;;;;;6.82;5.45;;;;;;;16.71;66.54;96046.28;4973072;28;20137;-61
2021/10/31 08:28:34;;;;;;;9.75;6.82;;;;;;;16.69;67.27;96057.78;4979541;28;20749;-62
2021/10/31 08:31:00;;;;;;;11.88;6.57;;;;;;;18.06;63.15;96041.97;4978843;28;20092;-62
2021/10/31 08:33:35;;;;;;;10.90;6.13;;;;;;;18.20;60.09;96040.81;4978227;28;20049;-62
2021/10/31 08:36:03;;;;;;;8.85;5.57;;;;;;;17.45;64.70;96046.06;4983766;28;20042;-63
2021/10/31 08:38:29;;;;;;;8.52;5.90;;;;;;;18.64;61.31;96040.53;4983099;28;20039;-61
2021/10/31 08:40:56;;;;;;;8.18;5.78;;;;;;;19.23;59.44;96035.78;4983578;28;20053;-63
2021/10/31 08:43:22;;;;;;;8.82;5.55;;;;;;;18.88;59.46;96035.56;4975894;28;20565;-63
2021/10/31 08:45:49;;;;;;;7.50;5.97;;;;;;;18.11;59.80;96024.81;4983319;28;20038;-63
2021/10/31 08:48:16;;;;;;;9.38;6.40;;;;;;;15.27;71.71;96020.88;4978100;28;20517;-62
2021/10/31 08:50:42;;;;;;;8.80;6.57;;;;;;;15.62;71.50;96022.34;4982673;28;20125;-63
2021/10/31 08:53:08;;;;;;;7.97;5.50;;;;;;;16.49;69.57;96007.19;4977967;28;20149;-64
2021/10/31 08:55:39;;;;;;;10.98;6.07;;;;;;;17.62;63.94;96010.09;4981103;28;20410;-63
2021/10/31 08:58:06;;;;;;;13.00;5.97;;;;;;;18.40;61.70;96010.25;4978218;28;20069;-63
2021/10/31 09:00:32;;;;;;;12.23;6.32;;;;;;;17.70;62.19;96005.94;4980794;28;20034;-63
2021/10/31 09:02:58;;;;;;;9.45;6.38;;;;;;;16.71;65.94;95997.31;4983641;28;20129;-63
2021/10/31 09:05:24;;;;;;;8.68;6.65;;;;;;;16.18;68.21;95994.28;4978645;28;20045;-63
2021/10/31 09:07:50;;;;;;;11.68;6.68;;;;;;;17.45;63.53;95995.44;4982888;28;20092;-62
2021/10/31 09:10:16;;;;;;;13.05;6.68;;;;;;;18.05;60.95;95989.75;4976692;28;20165;-62
2021/10/31 09:12:41;;;;;;;12.45;6.88;;;;;;;18.36;60.82;95986.59;4982224;28;20042;-63
2021/10/31 09:15:07;;;;;;;9.57;6.13;;;;;;;19.67;56.04;95986.09;4953639;28;20454;-62
2021/10/31 09:17:33;;;;;;;9.75;6.30;;;;;;;20.50;53.20;95984.22;4963054;28;20090;-62
2021/10/31 09:19:58;;;;;;;11.05;5.80;;;;;;;20.89;52.01;95976.53;4963290;28;20555;-62
2021/10/31 09:22:25;;;;;;;11.40;5.50;;;;;;;21.52;50.55;95974.63;4956097;28;20035;-62
2021/10/31 09:24:50;;;;;;;9.98;5.80;;;;;;;22.11;48.59;95968.31;4963317;28;20506;-62
2021/10/31 09:27:19;;;;;;;9.35;5.32;;;;;;;22.58;46.31;95967.19;4957519;28;20039;-62
2021/10/31 09:29:45;;;;;;;7.57;5.07;;;;;;;23.26;46.05;95963.44;4975042;28;20071;-62
2021/10/31 09:32:10;;;;;;;7.43;5.47;;;;;;;23.64;42.92;95956.47;4974947;28;20085;-62
2021/10/31 09:34:36;;;;;;;8.18;5.40;;;;;;;23.44;43.17;95962.63;4959211;28;20042;-62
2021/10/31 09:37:02;;;;;;;9.43;5.93;;;;;;;22.31;46.63;95962.38;4971947;28;20149;-62
2021/10/31 09:39:28;;;;;;;10.15;5.28;;;;;;;21.92;47.09;95953.56;4958180;28;20101;-62
2021/10/31 09:41:54;;;;;;;7.80;5.35;;;;;;;17.80;58.61;95948.75;4945075;28;20039;-62
2021/10/31 09:44:23;;;;;;;9.00;6.47;;;;;;;17.77;60.73;95948.41;4944885;28;20066;-62
2021/10/31 09:46:50;;;;;;;9.60;6.00;;;;;;;18.30;59.70;95950.31;4982547;28;20054;-62
2021/10/31 09:49:16;;;;;;;10.10;6.15;;;;;;;18.47;58.95;95940.72;4975531;28;20042;-63
2021/10/31 09:51:44;;;;;;;8.95;5.43;;;;;;;19.91;57.01;95933.00;4981450;28;20034;-64
2021/10/31 09:54:11;;;;;;;10.07;6.75;;;;;;;19.24;58.47;95931.88;4970369;28;20053;-61
2021/10/31 09:56:38;;;;;;;8.07;5.40;;;;;;;20.04;55.31;95920.63;4978495;28;20145;-63
2021/10/31 09:59:10;;;;;;;11.73;5.70;;;;;;;18.91;58.45;95918.94;4973413;28;20462;-62
2021/10/31 10:04:29;;;;;;;7.50;5.55;;;;;;;20.18;57.02;95911.00;4967353;28;20989;-62
2021/10/31 10:06:56;;;;;;;10.13;5.85;;;;;;;21.79;52.17;95906.31;4979509;28;20048;-62
2021/10/31 10:09:23;;;;;;;7.63;5.72;;;;;;;22.29;49.75;95912.63;4975438;28;20447;-62
2021/10/31 10:11:50;;;;;;;9.43;6.60;;;;;;;22.70;49.20;95907.63;4976984;28;20145;-62
2021/10/31 10:14:19;;;;;;;11.73;7.28;;;;;;;22.78;49.23;95910.13;4960469;28;20050;-62
2021/10/31 10:16:46;;;;;;;12.45;7.22;;;;;;;22.30;50.27;95900.22;4974533;28;20042;-62
2021/10/31 10:19:27;;;;;;;10.63;7.38;;;;;;;21.25;52.37;95900.03;4972475;28;20034;-62
2021/10/31 10:22:05;;;;;;;11.40;7.95;;;;;;;20.87;54.47;95889.94;4978510;28;20112;-62
2021/10/31 10:24:34;;;;;;;10.93;7.13;;;;;;;19.94;58.21;95888.41;4974314;28;20156;-63
2021/10/31 10:27:03;;;;;;;11.48;7.03;;;;;;;20.07;57.43;95868.91;4977444;28;20038;-63
2021/10/31 10:29:31;;;;;;;12.95;7.43;;;;;;;20.16;57.21;95871.00;4975176;28;20050;-62
2021/10/31 10:32:03;;;;;;;12.60;7.15;;;;;;;20.00;58.35;95850.47;4973308;28;20103;-62
2021/10/31 10:34:48;;;;;;;10.70;7.43;;;;;;;19.07;60.83;95850.72;4981893;28;20114;-63
2021/10/31 10:37:29;;;;;;;13.48;8.23;;;;;;;19.22;60.69;95837.16;4977400;28;20124;-63
2021/10/31 10:39:56;;;;;;;11.85;7.75;;;;;;;19.20;60.33;95839.59;4966594;28;20125;-62
2021/10/31 10:42:28;;;;;;;14.30;8.10;;;;;;;19.80;59.22;95833.31;4976130;28;20046;-62
2021/10/31 10:45:01;;;;;;;11.55;8.10;;;;;;;19.80;58.85;95822.19;4994996;28;20046;-61
2021/10/31 10:47:28;;;;;;;14.18;9.00;;;;;;;19.51;59.74;95814.03;4980899;28;20043;-61
2021/10/31 10:49:55;;;;;;;11.80;7.40;;;;;;;19.62;59.10;95814.44;4981407;28;20093;-61
2021/10/31 10:52:46;;;;;;;11.68;8.10;;;;;;;20.10;57.30;95809.66;4975459;28;20042;-62
2021/10/31 10:55:15;;;;;;;12.20;6.88;;;;;;;19.88;58.77;95804.06;4971165;28;20042;-62
2021/10/31 10:57:46;;;;;;;12.32;7.97;;;;;;;19.71;58.35;95803.41;4978004;28;20046;-61
2021/10/31 11:00:14;;;;;;;11.50;7.25;;;;;;;19.95;58.60;95801.03;4955921;28;20043;-62
2021/10/31 11:02:40;;;;;;;12.18;7.22;;;;;;;20.43;56.43;95779.44;4960474;28;20043;-61
2021/10/31 11:05:11;;;;;;;11.73;8.13;;;;;;;20.31;55.14;95788.66;4955146;28;20031;-62
2021/10/31 11:07:49;;;;;;;10.80;7.53;;;;;;;19.96;57.74;95780.34;4960596;28;20097;-61
2021/10/31 11:10:22;;;;;;;8.88;6.78;;;;;;;20.55;55.99;95766.69;4974345;28;20045;-62
2021/10/31 11:12:50;;;;;;;10.63;7.15;;;;;;;21.36;53.32;95763.16;4977192;28;20042;-62
2021/10/31 11:15:37;;;;;;;11.10;7.03;;;;;;;21.32;52.96;95754.16;4974998;28;20042;-62
2021/10/31 11:18:06;;;;;;;10.40;6.93;;;;;;;21.63;52.54;95756.09;4967260;28;20038;-62
2021/10/31 11:20:37;;;;;;;11.98;7.10;;;;;;;22.14;50.67;95739.50;4961745;28;20516;-62
2021/10/31 11:23:06;;;;;;;9.25;6.60;;;;;;;22.31;49.14;95740.00;4969305;28;20117;-62
2021/10/31 11:25:36;;;;;;;10.82;6.93;;;;;;;21.73;52.45;95744.50;4972487;28;20368;-64
2021/10/31 11:28:05;;;;;;;9.02;6.32;;;;;;;22.97;49.06;95740.53;4980034;28;20093;-62